ADDS METAR Data INFO
IDs: Format: Raw Decoded Include TAF

Data at: 0127 UTC 20 Feb 2018

K1M4 200056Z AUTO 16006KT 10SM CLR 19/17 A3019 RMK AO2 SLP239 T01940167
K1M4 192356Z AUTO 16007KT 10SM CLR 21/17 A3018 RMK AO2 SLP234 T02060167 10233 20206 53004
K1M4 192256Z AUTO 18010G17KT 10SM FEW070 22/17 A3017 RMK AO2 SLP230 T02220167
K1M4 192156Z AUTO 17011G15KT 10SM FEW041 BKN050 OVC065 23/16 A3016 RMK AO2 SLP227 T02280161
K1M4 192056Z AUTO 20012G19KT 10SM FEW036 SCT045 BKN060 22/16 A3016 RMK AO2 SLP230 T02220161 55008
K1M4 191956Z AUTO 17015G22KT 10SM BKN033 BKN045 22/16 A3016 RMK AO2 SLP230 T02170161
K1M4 191950Z AUTO 19012G20KT 10SM SCT029 BKN036 BKN043 23/16 A3017 RMK AO2
K1M4 191856Z AUTO 18013KT 10SM OVC023 21/17 A3019 RMK AO2 SLP240 T02060167
K1M4 191756Z AUTO 19013G19KT 10SM OVC017 20/17 A3022 RMK AO2 SLP252 T02000172 10200 20139 58011
K1M4 191656Z AUTO 20014G22KT 10SM BKN015 OVC022 19/17 A3026 RMK AO2 SLP266 T01940172
K1M4 191621Z AUTO 18012G18KT 10SM OVC010 18/17 A3026 RMK AO2 CIG 008V013
K1M4 191556Z AUTO 19011KT 10SM OVC008 18/17 A3026 RMK AO2 SLP266 T01780167
K1M4 191530Z AUTO 19013G19KT 10SM OVC008 17/17 A3026 RMK AO2 CIG 004V012
K1M4 191516Z AUTO 20013KT 10SM OVC004 17/17 A3026 RMK AO2 CIG 002V007
K1M4 191456Z AUTO 18009KT 3SM BR OVC002 16/16 A3026 RMK AO2 SLP266 T01610161 51013
K1M4 191436Z AUTO 19010KT 1 3/4SM BR OVC002 16/16 A3025 RMK AO2
K1M4 191356Z AUTO 18009KT 3SM BR OVC002 15/15 A3025 RMK AO2 SLP265 T01500150
K1M4 191310Z AUTO 16007KT 4SM BR OVC002 14/14 A3023 RMK AO2
K1M4 191256Z AUTO 17006KT 2SM BR OVC002 14/14 A3023 RMK AO2 SLP258 T01440144
K1M4 191246Z AUTO 16006KT 2 1/2SM BR OVC002 14/14 A3023 RMK AO2
K1M4 191156Z AUTO 17007KT 7SM OVC004 14/14 A3022 RMK AO2 SLP254 T01390139 10139 20122 52005
K1M4 191056Z AUTO 16005KT 10SM OVC004 13/13 A3021 RMK AO2 SLP252 T01330133
K1M4 191049Z AUTO 16007KT 10SM BKN004 OVC060 13/13 A3021 RMK AO2
K1M4 190956Z AUTO 16009KT 10SM SCT004 13/13 A3020 RMK AO2 SLP248 T01330133
K1M4 190911Z AUTO 16006KT 10SM FEW003 13/13 A3019 RMK AO2
K1M4 190856Z AUTO 16007KT 10SM BKN003 13/13 A3019 RMK AO2 CIG 003V007 SLP244 T01280128 53001
K1M4 190847Z AUTO 16005KT 10SM BKN003 13/13 A3019 RMK AO2
K1M4 190823Z AUTO 14005KT 10SM SCT003 13/13 A3019 RMK AO2
K1M4 190810Z AUTO 15006KT 10SM BKN005 13/13 A3019 RMK AO2
K1M4 190756Z AUTO 16006KT 10SM SCT005 13/13 A3018 RMK AO2 SLP242 T01280128
K1M4 190656Z AUTO 00000KT 10SM FEW004 13/13 A3019 RMK AO2 SLP242 T01280128
K1M4 190634Z AUTO 15003KT 10SM SCT004 13/13 A3018 RMK AO2
K1M4 190556Z AUTO 15005KT 9SM OVC002 13/13 A3018 RMK AO2 SLP241 60000 T01280128 10128 20122 55009
K1M4 190456Z AUTO 17008KT 3SM BR OVC002 12/12 A3018 RMK AO2 SLP241 T01220122 401610039
K1M4 190452Z AUTO 16007KT 3SM BR OVC002 12/12 A3018 RMK AO2 401610039
K1M4 190432Z AUTO 16007KT 1 3/4SM BR OVC002 12/12 A3018 RMK AO2
K1M4 190356Z AUTO 17010KT 5SM BR OVC002 12/12 A3019 RMK AO2 SLP247 T01220122
K1M4 190347Z AUTO 17007KT 2SM BR OVC002 12/12 A3019 RMK AO2
K1M4 190333Z AUTO 18007KT 1SM BR OVC002 12/12 A3019 RMK AO2
K1M4 190313Z AUTO 19006KT 1 1/4SM BR OVC002 12/12 A3020 RMK AO2
K1M4 190256Z AUTO 18006KT 3/4SM BR OVC002 12/12 A3020 RMK AO2 SLP254 60000 T01220122 50002
K1M4 190243Z AUTO 18007KT 1/2SM FG OVC002 12/12 A3021 RMK AO2
K1M4 190217Z AUTO 17008KT 3/4SM BR OVC002 12/12 A3021 RMK AO2
K1M4 190208Z AUTO 17007KT 1SM BR OVC004 12/12 A3021 RMK AO2
K1M4 190156Z AUTO 17006KT 2SM BR OVC004 12/12 A3021 RMK AO2 SLP257 T01220122
K1M4 190137Z AUTO 17005KT 10SM OVC004 12/12 A3021 RMK AO2
K1M4 190056Z AUTO 17006KT 10SM OVC008 12/12 A3020 RMK AO2 RAE04 SLP251 P0000 T01220122
K1M4 190053Z AUTO 17006KT 10SM OVC008 12/12 A3020 RMK AO2 RAE04 CIG 006V010 P0000
K1M4 182356Z AUTO 17005KT 10SM -RA OVC012 12/12 A3020 RMK AO2 RAB08E20B44 SLP249 P0000 60000 T01220122 10161 20122 50002
K1M4 182256Z AUTO 17005KT 10SM OVC014 13/11 A3020 RMK AO2 SLP253 T01330111
K1M4 182156Z AUTO 17007KT 10SM OVC018 14/10 A3019 RMK AO2 SLP250 T01390100
K1M4 182056Z AUTO VRB05KT 10SM OVC024 14/08 A3019 RMK AO2 SLP249 60000 T01440083 55008
K1M4 182046Z AUTO 16010KT 10SM OVC027 15/08 A3019 RMK AO2
K1M4 181956Z AUTO 17006KT 10SM SCT037 SCT070 OVC095 15/07 A3020 RMK AO2 RAB22E36 SLP252 P0000 T01500067
K1M4 181856Z AUTO 13010KT 9SM BKN100 BKN120 16/06 A3021 RMK AO2 SLP255 T01610061
K1M4 181756Z AUTO 15006KT 10SM FEW100 14/04 A3025 RMK AO2 SLP271 T01390044 10144 20039 58016
K1M4 181656Z AUTO 08007KT 10SM CLR 13/04 A3028 RMK AO2 SLP282 T01280044
K1M4 181556Z AUTO VRB06KT 10SM CLR 10/04 A3029 RMK AO2 SLP282 T01000044
K1M4 181456Z AUTO 10006KT 10SM CLR 08/05 A3030 RMK AO2 SLP286 T00830050 53009
K1M4 181356Z AUTO 07008KT 10SM CLR 06/04 A3030 RMK AO2 SLP286 T00610044